Terminal Aerodrome Forecast
Issued by NWS Sioux Falls, SD

Home | Current Version | Previous Version | Text Only | Print | Product List | Glossary Off
Versions: 1 2 3 4 5 6 7 8 9 10 11 12 13 14 15 16 17 18

000
FTUS43 KFSD 121200 AAA
TAFFSD
TAF AMD
KFSD 121200Z 1212/1312 VRB04KT P6SM SCT012 BKN120
      TEMPO 1212/1213 SCT012 BKN080
     FM121400 VRB06KT P6SM BKN120
      TEMPO 1216/1220 4SM TSRA BKN022CB
     FM122100 06006KT P6SM SCT030 BKN150
     FM130000 VRB04KT P6SM SCT200
     FM130600 29005KT 4SM BR SKC=

USA.gov is the U.S. government's official web portal to all federal, state and local government web resources and services.